sensor_id;sensor_type;location;lat;lon;timestamp;pressure;altitude;pressure_sealevel;temperature;humidity
57000;BME280;42891;50.006;21.964;2023-05-08T00:00:05;51078.84;;;-146.02;67.79
57000;BME280;42891;50.006;21.964;2023-05-08T00:04:05;51044.78;;;-146.02;68.20
57000;BME280;42891;50.006;21.964;2023-05-08T00:08:06;51082.84;;;-146.02;68.04
57000;BME280;42891;50.006;21.964;2023-05-08T00:12:06;51112.91;;;-146.02;68.01
57000;BME280;42891;50.006;21.964;2023-05-08T00:16:07;51074.81;;;-146.02;67.80
57000;BME280;42891;50.006;21.964;2023-05-08T00:20:08;51046.78;;;-146.02;68.02
57000;BME280;42891;50.006;21.964;2023-05-08T00:24:09;51080.84;;;-146.02;67.97
57000;BME280;42891;50.006;21.964;2023-05-08T00:28:10;51074.81;;;-146.02;68.06
57000;BME280;42891;50.006;21.964;2023-05-08T00:32:10;51088.84;;;-146.02;67.43
57000;BME280;42891;50.006;21.964;2023-05-08T00:36:10;51056.78;;;-146.02;67.57
57000;BME280;42891;50.006;21.964;2023-05-08T00:40:11;51076.81;;;-146.02;67.89
57000;BME280;42891;50.006;21.964;2023-05-08T00:44:12;51098.88;;;-146.02;67.69
57000;BME280;42891;50.006;21.964;2023-05-08T00:48:12;51088.84;;;-146.02;67.77
57000;BME280;42891;50.006;21.964;2023-05-08T00:52:12;51082.84;;;-146.02;67.84
57000;BME280;42891;50.006;21.964;2023-05-08T00:56:14;51092.84;;;-146.02;67.75
57000;BME280;42891;50.006;21.964;2023-05-08T01:00:16;51074.81;;;-146.02;67.50
57000;BME280;42891;50.006;21.964;2023-05-08T01:04:20;51092.84;;;-146.02;67.52
57000;BME280;42891;50.006;21.964;2023-05-08T01:08:21;51074.81;;;-146.02;67.77
57000;BME280;42891;50.006;21.964;2023-05-08T01:17:08;51060.78;;;-146.02;67.47
57000;BME280;42891;50.006;21.964;2023-05-08T01:33:36;51076.81;;;-146.02;67.30
57000;BME280;42891;50.006;21.964;2023-05-08T01:46:24;51098.88;;;-146.02;67.35
57000;BME280;42891;50.006;21.964;2023-05-08T01:50:30;51054.78;;;-146.02;67.46
57000;BME280;42891;50.006;21.964;2023-05-08T01:54:41;51068.81;;;-146.02;67.41
57000;BME280;42891;50.006;21.964;2023-05-08T01:58:44;51070.81;;;-146.02;67.60
57000;BME280;42891;50.006;21.964;2023-05-08T02:02:46;51060.78;;;-146.02;67.59
57000;BME280;42891;50.006;21.964;2023-05-08T02:06:48;51108.88;;;-146.02;67.80
57000;BME280;42891;50.006;21.964;2023-05-08T02:10:50;51060.78;;;-146.02;67.71
57000;BME280;42891;50.006;21.964;2023-05-08T02:14:52;51076.81;;;-146.02;67.71
57000;BME280;42891;50.006;21.964;2023-05-08T02:18:54;51104.88;;;-146.02;67.59
57000;BME280;42891;50.006;21.964;2023-05-08T02:22:56;51064.81;;;-146.02;67.67
57000;BME280;42891;50.006;21.964;2023-05-08T02:26:57;51080.84;;;-146.02;67.39
57000;BME280;42891;50.006;21.964;2023-05-08T02:30:59;51086.84;;;-146.02;67.73
57000;BME280;42891;50.006;21.964;2023-05-08T02:35:00;51088.84;;;-146.02;67.27
57000;BME280;42891;50.006;21.964;2023-05-08T02:39:01;51054.78;;;-146.02;67.46
57000;BME280;42891;50.006;21.964;2023-05-08T02:43:03;51076.81;;;-146.02;67.43
57000;BME280;42891;50.006;21.964;2023-05-08T02:47:33;51084.84;;;-146.02;67.79
57000;BME280;42891;50.006;21.964;2023-05-08T02:51:47;51074.81;;;-146.02;67.23
57000;BME280;42891;50.006;21.964;2023-05-08T02:55:53;51082.84;;;-146.02;67.34
57000;BME280;42891;50.006;21.964;2023-05-08T03:00:18;51064.81;;;-146.02;67.40
57000;BME280;42891;50.006;21.964;2023-05-08T03:04:25;51080.84;;;-146.02;67.03
57000;BME280;42891;50.006;21.964;2023-05-08T03:08:30;51086.84;;;-146.02;67.33
57000;BME280;42891;50.006;21.964;2023-05-08T03:12:32;51088.84;;;-146.02;67.84
57000;BME280;42891;50.006;21.964;2023-05-08T03:16:35;51076.81;;;-146.02;67.68
57000;BME280;42891;50.006;21.964;2023-05-08T03:20:39;51082.84;;;-146.02;67.66
57000;BME280;42891;50.006;21.964;2023-05-08T03:24:41;51058.78;;;-146.02;67.97
57000;BME280;42891;50.006;21.964;2023-05-08T03:28:43;51064.81;;;-146.02;68.01
57000;BME280;42891;50.006;21.964;2023-05-08T03:32:45;51076.81;;;-146.02;67.89
57000;BME280;42891;50.006;21.964;2023-05-08T03:36:46;51090.84;;;-146.02;67.47
57000;BME280;42891;50.006;21.964;2023-05-08T03:40:46;51098.88;;;-146.02;67.06
57000;BME280;42891;50.006;21.964;2023-05-08T03:44:52;51098.88;;;-146.02;67.82
57000;BME280;42891;50.006;21.964;2023-05-08T03:48:53;51078.84;;;-146.02;67.97
57000;BME280;42891;50.006;21.964;2023-05-08T03:53:06;51052.78;;;-146.02;67.91
57000;BME280;42891;50.006;21.964;2023-05-08T03:57:07;51080.84;;;-146.02;67.74
57000;BME280;42891;50.006;21.964;2023-05-08T04:01:11;51116.91;;;-146.02;67.68
57000;BME280;42891;50.006;21.964;2023-05-08T04:05:20;51086.84;;;-146.02;67.55
57000;BME280;42891;50.006;21.964;2023-05-08T04:13:36;51080.84;;;-146.02;67.46
57000;BME280;42891;50.006;21.964;2023-05-08T04:17:41;51058.78;;;-146.02;67.33
57000;BME280;42891;50.006;21.964;2023-05-08T04:21:46;51060.78;;;-146.02;67.59
57000;BME280;42891;50.006;21.964;2023-05-08T04:25:50;51078.84;;;-146.02;67.15
57000;BME280;42891;50.006;21.964;2023-05-08T04:29:52;51096.88;;;-146.02;67.31
57000;BME280;42891;50.006;21.964;2023-05-08T04:33:53;51082.84;;;-146.02;67.19
57000;BME280;42891;50.006;21.964;2023-05-08T04:37:54;51054.78;;;-146.02;67.71
57000;BME280;42891;50.006;21.964;2023-05-08T04:41:54;51084.84;;;-146.02;67.46
57000;BME280;42891;50.006;21.964;2023-05-08T04:46:03;51090.84;;;-146.02;68.17
57000;BME280;42891;50.006;21.964;2023-05-08T04:50:05;51080.84;;;-146.02;67.88
57000;BME280;42891;50.006;21.964;2023-05-08T04:54:05;51092.84;;;-146.02;67.73
57000;BME280;42891;50.006;21.964;2023-05-08T04:58:06;51072.81;;;-146.02;68.22
57000;BME280;42891;50.006;21.964;2023-05-08T05:02:06;51042.75;;;-146.02;68.01
57000;BME280;42891;50.006;21.964;2023-05-08T05:06:08;51078.84;;;-146.02;68.05
57000;BME280;42891;50.006;21.964;2023-05-08T05:10:08;51084.84;;;-146.02;67.63
57000;BME280;42891;50.006;21.964;2023-05-08T05:14:09;51060.78;;;-146.02;67.47
57000;BME280;42891;50.006;21.964;2023-05-08T05:18:10;51088.84;;;-146.02;67.38
57000;BME280;42891;50.006;21.964;2023-05-08T05:22:10;51058.78;;;-146.02;67.45
57000;BME280;42891;50.006;21.964;2023-05-08T05:26:11;51114.91;;;-146.02;67.58
57000;BME280;42891;50.006;21.964;2023-05-08T05:30:11;51090.84;;;-146.02;67.60
57000;BME280;42891;50.006;21.964;2023-05-08T05:34:12;51076.81;;;-146.02;67.67
57000;BME280;42891;50.006;21.964;2023-05-08T05:38:12;51068.81;;;-146.02;67.19
57000;BME280;42891;50.006;21.964;2023-05-08T05:42:13;51072.81;;;-146.02;67.57
57000;BME280;42891;50.006;21.964;2023-05-08T05:46:13;51080.84;;;-146.02;67.27
57000;BME280;42891;50.006;21.964;2023-05-08T05:50:16;51074.81;;;-146.02;67.23
57000;BME280;42891;50.006;21.964;2023-05-08T05:54:17;51090.84;;;-146.02;66.91
57000;BME280;42891;50.006;21.964;2023-05-08T05:58:18;51082.84;;;-146.02;66.92
57000;BME280;42891;50.006;21.964;2023-05-08T06:02:18;51132.94;;;-146.02;67.21
57000;BME280;42891;50.006;21.964;2023-05-08T06:06:19;51090.84;;;-146.02;66.42
57000;BME280;42891;50.006;21.964;2023-05-08T06:10:19;51072.81;;;-146.02;65.97
57000;BME280;42891;50.006;21.964;2023-05-08T06:14:20;51058.78;;;-146.02;66.32
57000;BME280;42891;50.006;21.964;2023-05-08T06:18:21;51114.91;;;-146.02;66.42
57000;BME280;42891;50.006;21.964;2023-05-08T06:22:22;51108.88;;;-146.02;65.48
57000;BME280;42891;50.006;21.964;2023-05-08T06:26:23;51066.81;;;-146.02;65.40
57000;BME280;42891;50.006;21.964;2023-05-08T06:30:23;51064.81;;;-146.02;65.88
57000;BME280;42891;50.006;21.964;2023-05-08T06:34:26;51072.81;;;-146.02;65.24
57000;BME280;42891;50.006;21.964;2023-05-08T06:38:27;51088.84;;;-146.02;64.85
57000;BME280;42891;50.006;21.964;2023-05-08T06:42:27;51092.84;;;-146.02;65.06
57000;BME280;42891;50.006;21.964;2023-05-08T06:46:27;51068.81;;;-146.02;64.98
57000;BME280;42891;50.006;21.964;2023-05-08T06:50:28;51140.94;;;-146.02;64.49
57000;BME280;42891;50.006;21.964;2023-05-08T06:54:30;51098.88;;;-146.02;64.19
57000;BME280;42891;50.006;21.964;2023-05-08T06:58:30;51124.91;;;-146.02;64.47
57000;BME280;42891;50.006;21.964;2023-05-08T07:02:31;51076.81;;;-146.02;63.69
57000;BME280;42891;50.006;21.964;2023-05-08T07:06:31;51068.81;;;-146.02;63.59
57000;BME280;42891;50.006;21.964;2023-05-08T07:10:32;51092.84;;;-146.02;62.88
57000;BME280;42891;50.006;21.964;2023-05-08T07:14:32;51098.88;;;-146.02;62.95
57000;BME280;42891;50.006;21.964;2023-05-08T07:18:32;51088.84;;;-146.02;63.06
57000;BME280;42891;50.006;21.964;2023-05-08T07:22:33;51084.84;;;-146.02;62.54
57000;BME280;42891;50.006;21.964;2023-05-08T07:26:33;51050.78;;;-146.02;63.43
57000;BME280;42891;50.006;21.964;2023-05-08T07:30:34;51070.81;;;-146.02;63.52
57000;BME280;42891;50.006;21.964;2023-05-08T07:34:35;51088.84;;;-146.02;62.99
57000;BME280;42891;50.006;21.964;2023-05-08T07:38:35;51052.78;;;-146.02;61.33
57000;BME280;42891;50.006;21.964;2023-05-08T07:42:42;51086.84;;;-146.02;61.76
57000;BME280;42891;50.006;21.964;2023-05-08T07:46:43;51060.78;;;-146.02;61.10
57000;BME280;42891;50.006;21.964;2023-05-08T07:50:43;51070.81;;;-146.02;61.43
57000;BME280;42891;50.006;21.964;2023-05-08T07:54:44;51084.84;;;-146.02;60.33
57000;BME280;42891;50.006;21.964;2023-05-08T07:58:45;51088.84;;;-146.02;59.77
57000;BME280;42891;50.006;21.964;2023-05-08T08:02:46;51066.81;;;-146.02;61.16
57000;BME280;42891;50.006;21.964;2023-05-08T08:06:47;51108.88;;;-146.02;59.48
57000;BME280;42891;50.006;21.964;2023-05-08T08:10:47;51092.84;;;-146.02;59.32
57000;BME280;42891;50.006;21.964;2023-05-08T08:14:48;51030.75;;;-146.02;59.92
57000;BME280;42891;50.006;21.964;2023-05-08T08:18:48;51068.81;;;-146.02;59.16
57000;BME280;42891;50.006;21.964;2023-05-08T08:22:50;51066.81;;;-146.02;58.85
57000;BME280;42891;50.006;21.964;2023-05-08T08:26:50;51076.81;;;-146.02;60.10
57000;BME280;42891;50.006;21.964;2023-05-08T08:30:50;51062.81;;;-146.02;58.43
57000;BME280;42891;50.006;21.964;2023-05-08T08:34:51;51086.84;;;-146.02;57.77
57000;BME280;42891;50.006;21.964;2023-05-08T08:38:51;51106.88;;;-146.02;56.97
57000;BME280;42891;50.006;21.964;2023-05-08T08:42:51;51076.81;;;-146.02;56.85
57000;BME280;42891;50.006;21.964;2023-05-08T08:46:52;51066.81;;;-146.02;57.08
57000;BME280;42891;50.006;21.964;2023-05-08T08:50:58;51056.78;;;-146.02;57.08
57000;BME280;42891;50.006;21.964;2023-05-08T08:55:01;51066.81;;;-146.02;55.62
57000;BME280;42891;50.006;21.964;2023-05-08T08:59:05;51046.78;;;-146.02;54.84
57000;BME280;42891;50.006;21.964;2023-05-08T09:03:07;51042.75;;;-146.02;54.77
57000;BME280;42891;50.006;21.964;2023-05-08T09:07:10;51080.84;;;-146.02;55.24
57000;BME280;42891;50.006;21.964;2023-05-08T09:11:11;51052.78;;;-146.02;55.38
57000;BME280;42891;50.006;21.964;2023-05-08T09:15:11;51076.81;;;-146.02;56.16
57000;BME280;42891;50.006;21.964;2023-05-08T09:19:13;51102.88;;;-146.02;55.29
57000;BME280;42891;50.006;21.964;2023-05-08T09:23:15;51084.84;;;-146.02;55.27
57000;BME280;42891;50.006;21.964;2023-05-08T09:27:20;51074.81;;;-146.02;54.33
57000;BME280;42891;50.006;21.964;2023-05-08T09:31:33;51068.81;;;-146.02;54.96
57000;BME280;42891;50.006;21.964;2023-05-08T09:35:36;51040.75;;;-146.02;54.30
57000;BME280;42891;50.006;21.964;2023-05-08T09:39:37;51080.84;;;-146.02;53.85
57000;BME280;42891;50.006;21.964;2023-05-08T09:43:43;51076.81;;;-146.02;54.27
57000;BME280;42891;50.006;21.964;2023-05-08T09:47:47;51052.78;;;-146.02;53.84
57000;BME280;42891;50.006;21.964;2023-05-08T09:51:53;51078.84;;;-146.02;53.64
57000;BME280;42891;50.006;21.964;2023-05-08T09:55:53;51056.78;;;-146.02;54.05
57000;BME280;42891;50.006;21.964;2023-05-08T10:00:06;51044.78;;;-146.02;54.02
57000;BME280;42891;50.006;21.964;2023-05-08T10:04:07;51090.84;;;-146.02;54.86
57000;BME280;42891;50.006;21.964;2023-05-08T10:08:21;51100.88;;;-146.02;53.29
57000;BME280;42891;50.006;21.964;2023-05-08T10:12:22;51058.78;;;-146.02;53.57
57000;BME280;42891;50.006;21.964;2023-05-08T10:16:23;51092.84;;;-146.02;53.75
57000;BME280;42891;50.006;21.964;2023-05-08T10:20:25;51050.78;;;-146.02;54.50
57000;BME280;42891;50.006;21.964;2023-05-08T10:24:32;51090.84;;;-146.02;54.55
57000;BME280;42891;50.006;21.964;2023-05-08T10:28:49;51082.84;;;-146.02;54.01
57000;BME280;42891;50.006;21.964;2023-05-08T10:32:53;51070.81;;;-146.02;53.95
57000;BME280;42891;50.006;21.964;2023-05-08T10:36:55;51042.75;;;-146.02;52.99
57000;BME280;42891;50.006;21.964;2023-05-08T10:40:58;51032.75;;;-146.02;54.09
57000;BME280;42891;50.006;21.964;2023-05-08T10:45:01;51070.81;;;-146.02;53.74
57000;BME280;42891;50.006;21.964;2023-05-08T10:53:38;51054.78;;;-146.02;51.77
57000;BME280;42891;50.006;21.964;2023-05-08T10:57:39;51064.81;;;-146.02;51.48
57000;BME280;42891;50.006;21.964;2023-05-08T11:01:40;51068.81;;;-146.02;51.23
57000;BME280;42891;50.006;21.964;2023-05-08T11:05:47;51022.72;;;-146.02;51.07
57000;BME280;42891;50.006;21.964;2023-05-08T11:09:48;51054.78;;;-146.02;49.08
57000;BME280;42891;50.006;21.964;2023-05-08T11:13:58;51056.78;;;-146.02;50.10
57000;BME280;42891;50.006;21.964;2023-05-08T11:18:08;51038.75;;;-146.02;49.96
57000;BME280;42891;50.006;21.964;2023-05-08T11:22:20;51030.75;;;-146.02;49.95
57000;BME280;42891;50.006;21.964;2023-05-08T11:26:37;51044.78;;;-146.02;49.77
57000;BME280;42891;50.006;21.964;2023-05-08T11:30:39;51056.78;;;-146.02;50.10
57000;BME280;42891;50.006;21.964;2023-05-08T11:34:46;51062.81;;;-146.02;51.39
57000;BME280;42891;50.006;21.964;2023-05-08T11:39:08;51040.75;;;-146.02;50.69
57000;BME280;42891;50.006;21.964;2023-05-08T11:47:30;51042.75;;;-146.02;49.09
57000;BME280;42891;50.006;21.964;2023-05-08T11:51:32;51016.72;;;-146.02;48.54
57000;BME280;42891;50.006;21.964;2023-05-08T11:55:32;51048.78;;;-146.02;49.94
57000;BME280;42891;50.006;21.964;2023-05-08T11:59:36;51068.81;;;-146.02;48.83
57000;BME280;42891;50.006;21.964;2023-05-08T12:03:36;51040.75;;;-146.02;48.76
57000;BME280;42891;50.006;21.964;2023-05-08T12:11:44;51048.78;;;-146.02;47.55
57000;BME280;42891;50.006;21.964;2023-05-08T12:15:49;51050.78;;;-146.02;48.56
57000;BME280;42891;50.006;21.964;2023-05-08T12:19:53;51052.78;;;-146.02;48.63
57000;BME280;42891;50.006;21.964;2023-05-08T12:23:54;51040.75;;;-146.02;47.68
57000;BME280;42891;50.006;21.964;2023-05-08T12:27:56;51024.72;;;-146.02;47.44
57000;BME280;42891;50.006;21.964;2023-05-08T12:31:57;51020.72;;;-146.02;46.49
57000;BME280;42891;50.006;21.964;2023-05-08T12:35:59;51084.84;;;-146.02;47.18
57000;BME280;42891;50.006;21.964;2023-05-08T12:40:00;51052.78;;;-146.02;47.41
57000;BME280;42891;50.006;21.964;2023-05-08T12:44:00;51056.78;;;-146.02;47.48
57000;BME280;42891;50.006;21.964;2023-05-08T12:48:06;51054.78;;;-146.02;47.96
57000;BME280;42891;50.006;21.964;2023-05-08T12:52:08;51052.78;;;-146.02;47.59
57000;BME280;42891;50.006;21.964;2023-05-08T12:56:08;51042.75;;;-146.02;48.28
57000;BME280;42891;50.006;21.964;2023-05-08T13:00:09;51044.78;;;-146.02;47.94
57000;BME280;42891;50.006;21.964;2023-05-08T13:04:10;51024.72;;;-146.02;47.48
57000;BME280;42891;50.006;21.964;2023-05-08T13:08:10;51062.81;;;-146.02;47.77
57000;BME280;42891;50.006;21.964;2023-05-08T13:12:11;51022.72;;;-146.02;47.04
57000;BME280;42891;50.006;21.964;2023-05-08T13:16:11;51044.78;;;-146.02;46.35
57000;BME280;42891;50.006;21.964;2023-05-08T13:20:11;51028.75;;;-146.02;45.19
57000;BME280;42891;50.006;21.964;2023-05-08T13:24:13;51028.75;;;-146.02;46.33
57000;BME280;42891;50.006;21.964;2023-05-08T13:28:13;51030.75;;;-146.02;45.83
57000;BME280;42891;50.006;21.964;2023-05-08T13:32:14;51044.78;;;-146.02;45.50
57000;BME280;42891;50.006;21.964;2023-05-08T13:36:14;51032.75;;;-146.02;44.88
57000;BME280;42891;50.006;21.964;2023-05-08T13:40:15;51024.72;;;-146.02;44.43
57000;BME280;42891;50.006;21.964;2023-05-08T13:44:16;51018.72;;;-146.02;44.80
57000;BME280;42891;50.006;21.964;2023-05-08T13:48:16;51058.78;;;-146.02;44.93
57000;BME280;42891;50.006;21.964;2023-05-08T13:52:16;51056.78;;;-146.02;46.01
57000;BME280;42891;50.006;21.964;2023-05-08T13:56:17;50996.69;;;-146.02;46.28
57000;BME280;42891;50.006;21.964;2023-05-08T14:00:17;51012.72;;;-146.02;46.16
57000;BME280;42891;50.006;21.964;2023-05-08T14:04:18;51048.78;;;-146.02;46.28
57000;BME280;42891;50.006;21.964;2023-05-08T14:08:18;51052.78;;;-146.02;45.84
57000;BME280;42891;50.006;21.964;2023-05-08T14:12:19;51040.75;;;-146.02;46.80
57000;BME280;42891;50.006;21.964;2023-05-08T14:16:19;51044.78;;;-146.02;45.29
57000;BME280;42891;50.006;21.964;2023-05-08T14:20:19;51040.75;;;-146.02;45.88
57000;BME280;42891;50.006;21.964;2023-05-08T14:24:20;51024.72;;;-146.02;46.05
57000;BME280;42891;50.006;21.964;2023-05-08T14:28:20;51008.69;;;-146.02;45.85
57000;BME280;42891;50.006;21.964;2023-05-08T14:32:21;51048.78;;;-146.02;45.68
57000;BME280;42891;50.006;21.964;2023-05-08T14:36:21;50998.69;;;-146.02;46.53
57000;BME280;42891;50.006;21.964;2023-05-08T14:40:21;51074.81;;;-146.02;45.99
57000;BME280;42891;50.006;21.964;2023-05-08T14:44:22;50994.69;;;-146.02;45.95
57000;BME280;42891;50.006;21.964;2023-05-08T14:48:22;51006.69;;;-146.02;45.89
57000;BME280;42891;50.006;21.964;2023-05-08T14:52:23;51040.75;;;-146.02;46.11
57000;BME280;42891;50.006;21.964;2023-05-08T14:56:23;50994.69;;;-146.02;45.85
57000;BME280;42891;50.006;21.964;2023-05-08T15:00:23;50964.63;;;-146.02;46.90
57000;BME280;42891;50.006;21.964;2023-05-08T15:04:24;51006.69;;;-146.02;47.05
57000;BME280;42891;50.006;21.964;2023-05-08T15:08:24;51064.81;;;-146.02;46.42
57000;BME280;42891;50.006;21.964;2023-05-08T15:12:25;51032.75;;;-146.02;46.55
57000;BME280;42891;50.006;21.964;2023-05-08T15:16:25;51026.72;;;-146.02;46.53
57000;BME280;42891;50.006;21.964;2023-05-08T15:20:25;51028.75;;;-146.02;47.32
57000;BME280;42891;50.006;21.964;2023-05-08T15:24:26;51056.78;;;-146.02;47.00
57000;BME280;42891;50.006;21.964;2023-05-08T15:28:26;51030.75;;;-146.02;47.08
57000;BME280;42891;50.006;21.964;2023-05-08T15:32:26;51012.72;;;-146.02;47.05
57000;BME280;42891;50.006;21.964;2023-05-08T15:36:27;51004.69;;;-146.02;46.68
57000;BME280;42891;50.006;21.964;2023-05-08T15:40:28;51016.72;;;-146.02;46.54
57000;BME280;42891;50.006;21.964;2023-05-08T15:44:29;50940.56;;;-146.02;47.05
57000;BME280;42891;50.006;21.964;2023-05-08T15:48:29;51026.72;;;-146.02;47.04
57000;BME280;42891;50.006;21.964;2023-05-08T15:52:29;51012.72;;;-146.02;46.11
57000;BME280;42891;50.006;21.964;2023-05-08T15:56:29;51030.75;;;-146.02;46.31
57000;BME280;42891;50.006;21.964;2023-05-08T16:00:30;51000.69;;;-146.02;47.00
57000;BME280;42891;50.006;21.964;2023-05-08T16:04:31;51028.75;;;-146.02;47.33
57000;BME280;42891;50.006;21.964;2023-05-08T16:08:31;51026.72;;;-146.02;46.61
57000;BME280;42891;50.006;21.964;2023-05-08T16:12:31;50984.66;;;-146.02;46.34
57000;BME280;42891;50.006;21.964;2023-05-08T16:16:32;51018.72;;;-146.02;46.81
57000;BME280;42891;50.006;21.964;2023-05-08T16:20:32;51020.72;;;-146.02;46.77
57000;BME280;42891;50.006;21.964;2023-05-08T16:24:33;51032.75;;;-146.02;47.31
57000;BME280;42891;50.006;21.964;2023-05-08T16:28:33;51004.69;;;-146.02;45.85
57000;BME280;42891;50.006;21.964;2023-05-08T16:32:33;51002.69;;;-146.02;45.97
57000;BME280;42891;50.006;21.964;2023-05-08T16:36:34;51034.75;;;-146.02;45.56
57000;BME280;42891;50.006;21.964;2023-05-08T16:40:34;51040.75;;;-146.02;45.91
57000;BME280;42891;50.006;21.964;2023-05-08T16:44:34;51008.69;;;-146.02;46.02
57000;BME280;42891;50.006;21.964;2023-05-08T16:48:35;51010.72;;;-146.02;46.53
57000;BME280;42891;50.006;21.964;2023-05-08T16:52:35;50992.66;;;-146.02;46.87
57000;BME280;42891;50.006;21.964;2023-05-08T16:56:36;51026.72;;;-146.02;46.84
57000;BME280;42891;50.006;21.964;2023-05-08T17:00:36;51006.69;;;-146.02;46.94
57000;BME280;42891;50.006;21.964;2023-05-08T17:04:36;50968.63;;;-146.02;47.30
57000;BME280;42891;50.006;21.964;2023-05-08T17:08:37;51016.72;;;-146.02;47.57
57000;BME280;42891;50.006;21.964;2023-05-08T17:12:37;51008.69;;;-146.02;47.76
57000;BME280;42891;50.006;21.964;2023-05-08T17:16:37;51030.75;;;-146.02;48.25
57000;BME280;42891;50.006;21.964;2023-05-08T17:20:38;51010.72;;;-146.02;48.24
57000;BME280;42891;50.006;21.964;2023-05-08T17:24:41;51016.72;;;-146.02;48.19
57000;BME280;42891;50.006;21.964;2023-05-08T17:28:42;51042.75;;;-146.02;48.98
57000;BME280;42891;50.006;21.964;2023-05-08T17:32:43;51008.69;;;-146.02;48.40
57000;BME280;42891;50.006;21.964;2023-05-08T17:36:45;50990.66;;;-146.02;48.55
57000;BME280;42891;50.006;21.964;2023-05-08T17:40:45;51004.69;;;-146.02;48.89
57000;BME280;42891;50.006;21.964;2023-05-08T17:44:46;51008.69;;;-146.02;48.79
57000;BME280;42891;50.006;21.964;2023-05-08T17:48:46;51010.72;;;-146.02;49.06
57000;BME280;42891;50.006;21.964;2023-05-08T17:52:46;50996.69;;;-146.02;49.23
57000;BME280;42891;50.006;21.964;2023-05-08T17:56:47;51038.75;;;-146.02;49.33
57000;BME280;42891;50.006;21.964;2023-05-08T18:00:47;51036.75;;;-146.02;50.12
57000;BME280;42891;50.006;21.964;2023-05-08T18:04:48;51044.78;;;-146.02;50.23
57000;BME280;42891;50.006;21.964;2023-05-08T18:08:48;51046.78;;;-146.02;50.49
57000;BME280;42891;50.006;21.964;2023-05-08T18:12:48;50976.63;;;-146.02;50.71
57000;BME280;42891;50.006;21.964;2023-05-08T18:16:49;50976.63;;;-146.02;50.58
57000;BME280;42891;50.006;21.964;2023-05-08T18:20:49;51018.72;;;-146.02;50.83
57000;BME280;42891;50.006;21.964;2023-05-08T18:24:49;50996.69;;;-146.02;51.65
57000;BME280;42891;50.006;21.964;2023-05-08T18:28:49;51022.72;;;-146.02;51.06
57000;BME280;42891;50.006;21.964;2023-05-08T18:32:50;50992.66;;;-146.02;51.78
57000;BME280;42891;50.006;21.964;2023-05-08T18:36:54;51016.72;;;-146.02;51.34
57000;BME280;42891;50.006;21.964;2023-05-08T18:40:54;51024.72;;;-146.02;51.98
57000;BME280;42891;50.006;21.964;2023-05-08T18:44:55;50990.66;;;-146.02;52.00
57000;BME280;42891;50.006;21.964;2023-05-08T18:48:55;51024.72;;;-146.02;52.58
57000;BME280;42891;50.006;21.964;2023-05-08T18:52:55;51034.75;;;-146.02;52.25
57000;BME280;42891;50.006;21.964;2023-05-08T18:56:56;51034.75;;;-146.02;52.70
57000;BME280;42891;50.006;21.964;2023-05-08T19:00:59;50994.69;;;-146.02;52.46
57000;BME280;42891;50.006;21.964;2023-05-08T19:05:02;50996.69;;;-146.02;53.26
57000;BME280;42891;50.006;21.964;2023-05-08T19:09:03;51030.75;;;-146.02;53.23
57000;BME280;42891;50.006;21.964;2023-05-08T19:13:03;51012.72;;;-146.02;53.57
57000;BME280;42891;50.006;21.964;2023-05-08T19:17:04;51042.75;;;-146.02;53.37
57000;BME280;42891;50.006;21.964;2023-05-08T19:21:04;51048.78;;;-146.02;53.96
57000;BME280;42891;50.006;21.964;2023-05-08T19:25:05;51038.75;;;-146.02;53.73
57000;BME280;42891;50.006;21.964;2023-05-08T19:29:06;51044.78;;;-146.02;53.76
57000;BME280;42891;50.006;21.964;2023-05-08T19:33:06;51046.78;;;-146.02;53.88
57000;BME280;42891;50.006;21.964;2023-05-08T19:37:06;51060.78;;;-146.02;54.32
57000;BME280;42891;50.006;21.964;2023-05-08T19:41:07;51080.84;;;-146.02;54.16
57000;BME280;42891;50.006;21.964;2023-05-08T19:45:08;51062.81;;;-146.02;54.91
57000;BME280;42891;50.006;21.964;2023-05-08T19:49:08;51046.78;;;-146.02;54.67
57000;BME280;42891;50.006;21.964;2023-05-08T19:53:09;51036.75;;;-146.02;54.87
57000;BME280;42891;50.006;21.964;2023-05-08T19:57:09;51030.75;;;-146.02;55.00
57000;BME280;42891;50.006;21.964;2023-05-08T20:01:10;51062.81;;;-146.02;55.16
57000;BME280;42891;50.006;21.964;2023-05-08T20:05:10;51034.75;;;-146.02;54.99
57000;BME280;42891;50.006;21.964;2023-05-08T20:09:10;51044.78;;;-146.02;54.98
57000;BME280;42891;50.006;21.964;2023-05-08T20:13:11;51002.69;;;-146.02;55.38
57000;BME280;42891;50.006;21.964;2023-05-08T20:17:12;51026.72;;;-146.02;55.31
57000;BME280;42891;50.006;21.964;2023-05-08T20:21:13;51042.75;;;-146.02;55.55
57000;BME280;42891;50.006;21.964;2023-05-08T20:25:13;51022.72;;;-146.02;55.68
57000;BME280;42891;50.006;21.964;2023-05-08T20:29:13;51034.75;;;-146.02;55.28
57000;BME280;42891;50.006;21.964;2023-05-08T20:33:13;51022.72;;;-146.02;55.63
57000;BME280;42891;50.006;21.964;2023-05-08T20:37:14;51020.72;;;-146.02;55.98
57000;BME280;42891;50.006;21.964;2023-05-08T20:41:17;51066.81;;;-146.02;55.93
57000;BME280;42891;50.006;21.964;2023-05-08T20:45:17;51068.81;;;-146.02;56.16
57000;BME280;42891;50.006;21.964;2023-05-08T20:49:18;51036.75;;;-146.02;56.65
57000;BME280;42891;50.006;21.964;2023-05-08T20:53:18;51032.75;;;-146.02;56.20
57000;BME280;42891;50.006;21.964;2023-05-08T20:57:19;51054.78;;;-146.02;56.78
57000;BME280;42891;50.006;21.964;2023-05-08T21:01:19;51018.72;;;-146.02;56.74
57000;BME280;42891;50.006;21.964;2023-05-08T21:05:19;51034.75;;;-146.02;57.09
57000;BME280;42891;50.006;21.964;2023-05-08T21:09:20;51044.78;;;-146.02;57.19
57000;BME280;42891;50.006;21.964;2023-05-08T21:13:22;51058.78;;;-146.02;56.41